Portada
METAR-TAF:

METAR-TAF

Aeroports :

Kozhikode, Índia

latitud: 11-08-24N, longitud: 75-57-00E, altitud: 104 m

Observació

L'informe es va fer fa 33 minuts, a les 11:30 UTC
Vent 8 kt del Oest
Temperatura 32°C
Humitat 56%
Pressió 1009 hPa
Visibilitat: 6000 m
Escasses núvols a una alçada de 1500 ft

METAR: VOCL 171130Z 26008KT 6000 FEW015 32/22 Q1009 NOSIG

Hora: 17:33 (12:03 UTC)

Pronòstic

L'informe es va fer fa 1 hora i 3 minuts, a les 11:00 UTC
Pronòstic vàlid del 17 a les 12 UTC al 17 a les 21 UTC
Vent 10 kt del Oest
Visibilitat: 6000 m
Escasses núvols a una alçada de 1500 ft
Evolucionant progressivament
l' 17 a les 18 UTC al 17 a les 19 UTC
Vent 3 kt amb direcció variable
Visibilitat: 5000 m
calitja

TAF: VOCL 171100Z 1712/1721 26010KT 6000 FEW015 BECMG 1718/1719 VRB03KT 5000 HZ

Observacions i pronòstics meteorològics de més de 4000 aeroports (METAR i TAF).

Les estacions disponibles són els punts grocs i vermells al mapa.

Posi el ratolí al punt desitjat per veure el nom de l'estació.

Feu clic per veure les observacions i els pronòstics meteorològics.

Per canviar el mapa: feu clic els botons verds amb una creu de color negre per apropar; al botó verd amb un guió per allunyar la imatge; o en les fletxes verdes per a mapes adjacents.


METAR-TAF: